Time;durP1;ratioP1;P1;durP2;ratioP2;P2;SDS_P1;SDS_P2;PMS_P1;PMS_P2;Temp;Humidity;BMP_temperature;BMP_pressure;BME280_temperature;BME280_humidity;BME280_pressure;Samples;Min_cycle;Max_cycle;Signal;HPM_P1;HPM_P2
2022/07/29 00:02:17;;;;;;;9.20;2.20;;;;;;;;;;5053140;28;20469;-75
2022/07/29 00:04:43;;;;;;;5.80;1.95;;;;;;;;;;5053037;28;20071;-75
2022/07/29 00:07:09;;;;;;;9.20;2.15;;;;;;;;;;5052855;28;20469;-76
2022/07/29 00:09:35;;;;;;;14.00;2.55;;;;;;;;;;5053605;28;20078;-78
2022/07/29 00:12:02;;;;;;;8.25;1.92;;;;;;;;;;5053685;28;20474;-76
2022/07/29 00:14:28;;;;;;;7.28;2.42;;;;;;;;;;5053520;28;20029;-76
2022/07/29 00:16:54;;;;;;;9.00;2.05;;;;;;;;;;5054484;28;20047;-76
2022/07/29 00:19:20;;;;;;;9.00;1.63;;;;;;;;;;5054800;28;20474;-76
2022/07/29 00:21:46;;;;;;;13.30;2.45;;;;;;;;;;5055558;28;20497;-77
2022/07/29 00:24:12;;;;;;;9.48;2.30;;;;;;;;;;5053355;28;20029;-76
2022/07/29 00:26:38;;;;;;;7.45;1.90;;;;;;;;;;5052584;28;20028;-76
2022/07/29 00:29:05;;;;;;;9.55;2.20;;;;;;;;;;5052661;28;20075;-76
2022/07/29 00:31:31;;;;;;;9.23;2.20;;;;;;;;;;5052347;28;20032;-75
2022/07/29 00:33:57;;;;;;;8.73;1.70;;;;;;;;;;5052496;28;20021;-75
2022/07/29 00:36:23;;;;;;;6.32;2.38;;;;;;;;;;5052481;28;20024;-76
2022/07/29 00:38:50;;;;;;;4.00;1.70;;;;;;;;;;5052453;28;20024;-76
2022/07/29 00:41:16;;;;;;;6.30;1.90;;;;;;;;;;5050861;28;20496;-76
2022/07/29 00:43:43;;;;;;;3.58;1.77;;;;;;;;;;5052343;28;20432;-76
2022/07/29 00:46:09;;;;;;;4.85;1.85;;;;;;;;;;5052280;28;20017;-76
2022/07/29 00:48:35;;;;;;;9.13;1.80;;;;;;;;;;5052406;28;20541;-75
2022/07/29 00:51:02;;;;;;;6.07;1.85;;;;;;;;;;5052458;28;20021;-76
2022/07/29 00:53:28;;;;;;;6.53;2.05;;;;;;;;;;5051700;28;20385;-76
2022/07/29 00:55:55;;;;;;;7.53;2.15;;;;;;;;;;5052298;28;20029;-77
2022/07/29 00:58:21;;;;;;;10.25;2.20;;;;;;;;;;5052451;28;20031;-77
2022/07/29 01:00:47;;;;;;;8.05;2.08;;;;;;;;;;5052366;28;20616;-75
2022/07/29 01:03:13;;;;;;;6.30;2.00;;;;;;;;;;5052596;28;20025;-78
2022/07/29 01:05:40;;;;;;;8.65;2.10;;;;;;;;;;5053279;28;20112;-76
2022/07/29 01:08:06;;;;;;;5.65;2.10;;;;;;;;;;5052128;28;20466;-76
2022/07/29 01:10:32;;;;;;;10.27;2.72;;;;;;;;;;5052193;28;20394;-75
2022/07/29 01:12:59;;;;;;;8.05;2.20;;;;;;;;;;5052028;28;20021;-75
2022/07/29 01:15:25;;;;;;;7.65;2.40;;;;;;;;;;5052052;28;20032;-76
2022/07/29 01:17:54;;;;;;;7.72;2.30;;;;;;;;;;5051196;28;20033;-75
2022/07/29 01:20:37;;;;;;;10.52;2.47;;;;;;;;;;5052666;28;20064;-74
2022/07/29 01:23:11;;;;;;;5.20;1.88;;;;;;;;;;5053011;28;20040;-75
2022/07/29 01:25:51;;;;;;;6.10;2.20;;;;;;;;;;5051799;28;20024;-74
2022/07/29 01:28:33;;;;;;;7.03;2.35;;;;;;;;;;5052935;28;20036;-77
2022/07/29 01:30:59;;;;;;;8.65;2.50;;;;;;;;;;5051466;28;20057;-75
2022/07/29 01:36:13;;;;;;;10.55;2.17;;;;;;;;;;5052619;28;20159;-74
2022/07/29 01:38:41;;;;;;;9.85;2.58;;;;;;;;;;5052776;28;20116;-76
2022/07/29 01:41:10;;;;;;;9.02;2.38;;;;;;;;;;5052464;28;20033;-76
2022/07/29 01:43:47;;;;;;;5.63;2.45;;;;;;;;;;5053688;28;20147;-76
2022/07/29 01:46:15;;;;;;;7.90;2.50;;;;;;;;;;5052472;28;20029;-77
2022/07/29 01:48:45;;;;;;;5.10;2.53;;;;;;;;;;5053048;28;20055;-76
2022/07/29 01:51:21;;;;;;;8.50;2.72;;;;;;;;;;5058460;28;20021;-74
2022/07/29 01:54:03;;;;;;;8.90;3.15;;;;;;;;;;5067753;28;20036;-75
2022/07/29 01:56:32;;;;;;;7.13;2.70;;;;;;;;;;5078200;28;20035;-79
2022/07/29 01:58:59;;;;;;;11.00;2.67;;;;;;;;;;5075630;28;20021;-75
2022/07/29 02:01:26;;;;;;;11.77;2.85;;;;;;;;;;5070540;28;20029;-75
2022/07/29 02:03:53;;;;;;;11.38;3.10;;;;;;;;;;5072083;28;20138;-76
2022/07/29 02:06:20;;;;;;;8.45;2.88;;;;;;;;;;5063015;28;20462;-75
2022/07/29 02:08:49;;;;;;;9.13;2.70;;;;;;;;;;5055811;28;20032;-75
2022/07/29 02:11:15;;;;;;;9.48;3.33;;;;;;;;;;5072593;28;20041;-74
2022/07/29 02:13:42;;;;;;;13.85;3.63;;;;;;;;;;5076808;28;20040;-76
2022/07/29 02:16:08;;;;;;;12.05;3.45;;;;;;;;;;5057711;28;20025;-76
2022/07/29 02:18:36;;;;;;;9.02;2.97;;;;;;;;;;5062237;28;20025;-76
2022/07/29 02:21:03;;;;;;;10.77;3.17;;;;;;;;;;5064511;28;20036;-75
2022/07/29 02:23:31;;;;;;;9.63;3.55;;;;;;;;;;5056990;28;20025;-75
2022/07/29 02:25:58;;;;;;;10.93;3.60;;;;;;;;;;5059105;28;20047;-77
2022/07/29 02:28:28;;;;;;;13.40;3.58;;;;;;;;;;5059840;28;20029;-76
2022/07/29 02:30:56;;;;;;;9.88;3.10;;;;;;;;;;5060279;28;20021;-76
2022/07/29 02:33:23;;;;;;;8.65;3.05;;;;;;;;;;5058932;28;20029;-76
2022/07/29 02:35:50;;;;;;;14.50;3.20;;;;;;;;;;5056120;28;20033;-77
2022/07/29 02:41:03;;;;;;;11.90;3.25;;;;;;;;;;5061932;28;20044;-76
2022/07/29 02:43:31;;;;;;;9.88;3.53;;;;;;;;;;5067513;28;20142;-77
2022/07/29 02:45:57;;;;;;;12.13;3.22;;;;;;;;;;5064581;28;20097;-76
2022/07/29 02:48:27;;;;;;;14.80;4.68;;;;;;;;;;5064884;28;20052;-77
2022/07/29 02:50:59;;;;;;;16.52;4.25;;;;;;;;;;5066329;28;20043;-76
2022/07/29 02:53:26;;;;;;;14.13;3.30;;;;;;;;;;5067954;28;20104;-76
2022/07/29 02:55:56;;;;;;;9.07;3.10;;;;;;;;;;5071610;28;20009;-78
2022/07/29 02:58:28;;;;;;;14.77;4.45;;;;;;;;;;5079172;28;20036;-78
2022/07/29 03:00:55;;;;;;;11.70;4.35;;;;;;;;;;5062763;28;20067;-77
2022/07/29 03:03:22;;;;;;;10.23;3.45;;;;;;;;;;5074224;28;20013;-78
2022/07/29 03:05:48;;;;;;;14.32;4.55;;;;;;;;;;5078440;28;20024;-78
2022/07/29 03:08:15;;;;;;;11.88;3.50;;;;;;;;;;5069261;28;20045;-77
2022/07/29 03:10:43;;;;;;;13.90;5.13;;;;;;;;;;5058520;28;20029;-78
2022/07/29 03:13:10;;;;;;;14.95;4.45;;;;;;;;;;5056987;28;20061;-78
2022/07/29 03:15:37;;;;;;;11.85;3.50;;;;;;;;;;5055985;28;20021;-78
2022/07/29 03:18:04;;;;;;;12.10;4.30;;;;;;;;;;5059273;28;20531;-77
2022/07/29 03:20:30;;;;;;;13.73;3.38;;;;;;;;;;5057462;28;20017;-77
2022/07/29 03:22:56;;;;;;;9.50;3.15;;;;;;;;;;5056951;28;20096;-77
2022/07/29 03:25:22;;;;;;;11.80;3.10;;;;;;;;;;5054848;28;20021;-77
2022/07/29 03:27:48;;;;;;;8.40;3.30;;;;;;;;;;5055441;28;20028;-76
2022/07/29 03:30:15;;;;;;;10.23;3.75;;;;;;;;;;5056521;28;20025;-78
2022/07/29 03:32:42;;;;;;;17.02;4.22;;;;;;;;;;5055309;28;20071;-77
2022/07/29 03:35:08;;;;;;;15.23;5.05;;;;;;;;;;5057852;28;20040;-78
2022/07/29 03:37:36;;;;;;;13.02;4.90;;;;;;;;;;5063226;28;20057;-78
2022/07/29 03:40:02;;;;;;;16.13;6.88;;;;;;;;;;5060413;28;20021;-77
2022/07/29 03:42:31;;;;;;;15.77;3.60;;;;;;;;;;5057565;28;20036;-78
2022/07/29 03:44:59;;;;;;;10.80;3.53;;;;;;;;;;5057869;28;20489;-77
2022/07/29 03:47:26;;;;;;;14.98;5.85;;;;;;;;;;5055381;28;20092;-78
2022/07/29 03:49:54;;;;;;;10.80;3.70;;;;;;;;;;5054530;28;20386;-77
2022/07/29 03:52:21;;;;;;;15.05;3.90;;;;;;;;;;5054042;28;20017;-78
2022/07/29 03:54:47;;;;;;;17.83;4.85;;;;;;;;;;5056215;28;20039;-77
2022/07/29 03:57:14;;;;;;;10.27;4.28;;;;;;;;;;5057554;28;20436;-79
2022/07/29 03:59:40;;;;;;;15.32;5.38;;;;;;;;;;5053870;28;20025;-77
2022/07/29 04:02:08;;;;;;;9.57;3.88;;;;;;;;;;5053375;28;20074;-76
2022/07/29 04:04:35;;;;;;;11.50;4.60;;;;;;;;;;5053944;28;20036;-77
2022/07/29 04:07:01;;;;;;;14.30;5.85;;;;;;;;;;5053460;28;20470;-78
2022/07/29 04:09:27;;;;;;;14.20;5.78;;;;;;;;;;5053817;28;20424;-77
2022/07/29 04:11:53;;;;;;;14.43;4.40;;;;;;;;;;5054885;28;20021;-78
2022/07/29 04:14:20;;;;;;;15.68;5.75;;;;;;;;;;5053649;28;20466;-78
2022/07/29 04:16:46;;;;;;;18.67;4.20;;;;;;;;;;5059132;28;20021;-77
2022/07/29 04:19:12;;;;;;;13.32;4.30;;;;;;;;;;5056421;28;20044;-78
2022/07/29 04:21:38;;;;;;;9.07;4.43;;;;;;;;;;5055016;28;20029;-78
2022/07/29 04:24:04;;;;;;;12.48;4.13;;;;;;;;;;5056508;28;20411;-77
2022/07/29 04:26:30;;;;;;;12.25;3.90;;;;;;;;;;5053619;28;20473;-76
2022/07/29 04:28:56;;;;;;;8.88;4.00;;;;;;;;;;5055412;28;20025;-76
2022/07/29 04:31:22;;;;;;;11.88;5.15;;;;;;;;;;5057686;28;20048;-76
2022/07/29 04:33:48;;;;;;;13.73;6.93;;;;;;;;;;5071211;28;20032;-76
2022/07/29 04:36:14;;;;;;;10.43;4.45;;;;;;;;;;5069862;28;20043;-76
2022/07/29 04:38:40;;;;;;;9.40;3.70;;;;;;;;;;5070469;28;20115;-76
2022/07/29 04:41:08;;;;;;;13.02;4.18;;;;;;;;;;5074002;28;20024;-75
2022/07/29 04:43:34;;;;;;;9.60;4.13;;;;;;;;;;5074936;28;20032;-77
2022/07/29 04:46:00;;;;;;;11.32;4.10;;;;;;;;;;5055904;28;20091;-77
2022/07/29 04:48:26;;;;;;;12.75;4.28;;;;;;;;;;5054097;28;20478;-77
2022/07/29 04:50:52;;;;;;;15.70;3.83;;;;;;;;;;5053108;28;20075;-78
2022/07/29 04:53:18;;;;;;;11.60;3.53;;;;;;;;;;5056562;28;20108;-75
2022/07/29 04:55:45;;;;;;;11.15;3.80;;;;;;;;;;5053149;28;20096;-77
2022/07/29 04:58:11;;;;;;;9.82;3.33;;;;;;;;;;5052163;28;20112;-76
2022/07/29 05:00:37;;;;;;;13.10;3.58;;;;;;;;;;5052995;28;20029;-77
2022/07/29 05:03:03;;;;;;;8.15;3.70;;;;;;;;;;5052365;28;20375;-78
2022/07/29 05:05:29;;;;;;;7.97;3.10;;;;;;;;;;5053137;28;20029;-76
2022/07/29 05:07:56;;;;;;;12.48;3.60;;;;;;;;;;5053881;28;20025;-77
2022/07/29 05:10:22;;;;;;;16.80;4.00;;;;;;;;;;5053377;28;20409;-76
2022/07/29 05:12:48;;;;;;;9.40;3.60;;;;;;;;;;5053156;28;20021;-77
2022/07/29 05:15:14;;;;;;;9.38;3.08;;;;;;;;;;5052242;28;20023;-77
2022/07/29 05:17:40;;;;;;;9.77;3.33;;;;;;;;;;5053042;28;20453;-75
2022/07/29 05:20:07;;;;;;;11.60;3.30;;;;;;;;;;5054128;28;20029;-76
2022/07/29 05:22:33;;;;;;;9.55;3.47;;;;;;;;;;5052814;28;20028;-77
2022/07/29 05:24:59;;;;;;;12.32;3.25;;;;;;;;;;5052639;28;20032;-77
2022/07/29 05:27:25;;;;;;;12.95;3.92;;;;;;;;;;5054245;28;20077;-76
2022/07/29 05:29:51;;;;;;;13.95;5.13;;;;;;;;;;5056492;28;20021;-77
2022/07/29 05:32:17;;;;;;;11.25;3.72;;;;;;;;;;5056424;28;20036;-76
2022/07/29 05:34:43;;;;;;;12.52;4.20;;;;;;;;;;5057024;28;20047;-77
2022/07/29 05:37:09;;;;;;;10.32;4.00;;;;;;;;;;5055911;28;20033;-76
2022/07/29 05:39:35;;;;;;;11.50;4.35;;;;;;;;;;5056031;28;20143;-77
2022/07/29 05:42:01;;;;;;;9.73;3.60;;;;;;;;;;5056298;28;20474;-77
2022/07/29 05:44:28;;;;;;;12.18;3.78;;;;;;;;;;5056201;28;20075;-77
2022/07/29 05:46:54;;;;;;;10.88;4.03;;;;;;;;;;5061518;28;20051;-78
2022/07/29 05:49:20;;;;;;;14.60;4.05;;;;;;;;;;5072146;28;20013;-77
2022/07/29 05:51:47;;;;;;;14.65;4.65;;;;;;;;;;5077725;28;20024;-78
2022/07/29 05:54:13;;;;;;;14.43;3.83;;;;;;;;;;5058473;28;20032;-78
2022/07/29 05:56:39;;;;;;;8.98;4.03;;;;;;;;;;5056451;28;20028;-76
2022/07/29 05:59:05;;;;;;;16.35;5.03;;;;;;;;;;5068057;28;20072;-81
2022/07/29 06:01:31;;;;;;;14.70;4.00;;;;;;;;;;5062303;28;20056;-74
2022/07/29 06:03:57;;;;;;;16.23;3.30;;;;;;;;;;5057530;28;20021;-74
2022/07/29 06:06:23;;;;;;;17.55;4.05;;;;;;;;;;5055728;28;20115;-77
2022/07/29 06:08:49;;;;;;;18.88;4.97;;;;;;;;;;5057648;28;20116;-78
2022/07/29 06:11:15;;;;;;;16.42;4.68;;;;;;;;;;5057823;28;20021;-77
2022/07/29 06:13:41;;;;;;;13.35;3.55;;;;;;;;;;5061978;28;20037;-79
2022/07/29 06:16:07;;;;;;;13.88;3.70;;;;;;;;;;5058157;28;20374;-77
2022/07/29 06:18:33;;;;;;;13.23;3.40;;;;;;;;;;5059507;28;20041;-78
2022/07/29 06:20:59;;;;;;;9.82;3.47;;;;;;;;;;5058805;28;20168;-78
2022/07/29 06:23:25;;;;;;;14.00;3.70;;;;;;;;;;5059353;28;20031;-78
2022/07/29 06:25:51;;;;;;;11.02;3.78;;;;;;;;;;5056561;28;20025;-78
2022/07/29 06:28:17;;;;;;;7.93;2.90;;;;;;;;;;5057172;28;20174;-79
2022/07/29 06:30:42;;;;;;;11.82;3.10;;;;;;;;;;5056412;28;20067;-77
2022/07/29 06:33:08;;;;;;;11.95;3.03;;;;;;;;;;5056187;28;20063;-78
2022/07/29 06:35:35;;;;;;;11.15;3.53;;;;;;;;;;5055267;28;20644;-78
2022/07/29 06:38:02;;;;;;;12.65;3.78;;;;;;;;;;5056560;28;20107;-78
2022/07/29 06:43:12;;;;;;;7.97;3.50;;;;;;;;;;5055934;28;20090;-78
2022/07/29 06:45:40;;;;;;;11.38;4.10;;;;;;;;;;5055366;28;20425;-77
2022/07/29 06:48:06;;;;;;;10.30;4.25;;;;;;;;;;5055001;28;20025;-77
2022/07/29 06:50:32;;;;;;;6.47;3.30;;;;;;;;;;5057174;28;20025;-78
2022/07/29 06:52:58;;;;;;;14.07;3.67;;;;;;;;;;5055375;28;20028;-77
2022/07/29 06:55:24;;;;;;;13.15;3.80;;;;;;;;;;5055720;28;20031;-77
2022/07/29 06:57:51;;;;;;;10.30;4.80;;;;;;;;;;5056419;28;20029;-77
2022/07/29 07:00:17;;;;;;;10.68;4.38;;;;;;;;;;5055775;28;20153;-78
2022/07/29 07:02:43;;;;;;;10.43;4.00;;;;;;;;;;5056958;28;20075;-77
2022/07/29 07:05:09;;;;;;;9.77;3.47;;;;;;;;;;5065518;28;20033;-78
2022/07/29 07:07:35;;;;;;;15.25;3.67;;;;;;;;;;5073083;28;20005;-76
2022/07/29 07:10:01;;;;;;;13.75;3.92;;;;;;;;;;5067770;28;20080;-77
2022/07/29 07:12:27;;;;;;;13.52;3.70;;;;;;;;;;5067146;28;20025;-77
2022/07/29 07:14:53;;;;;;;19.63;4.05;;;;;;;;;;5068586;28;20040;-80
2022/07/29 07:17:19;;;;;;;8.93;3.20;;;;;;;;;;5064656;28;20081;-76
2022/07/29 07:19:45;;;;;;;13.88;2.92;;;;;;;;;;5064625;28;20025;-76
2022/07/29 07:22:11;;;;;;;14.73;3.40;;;;;;;;;;5062550;28;20057;-77
2022/07/29 07:24:37;;;;;;;8.80;3.20;;;;;;;;;;5055263;28;20036;-77
2022/07/29 07:27:03;;;;;;;9.40;3.22;;;;;;;;;;5056336;28;20474;-76
2022/07/29 07:29:29;;;;;;;8.55;2.80;;;;;;;;;;5057698;28;20109;-76
2022/07/29 07:31:55;;;;;;;7.43;3.30;;;;;;;;;;5055055;28;20025;-78
2022/07/29 07:34:21;;;;;;;15.23;3.72;;;;;;;;;;5055337;28;20469;-77
2022/07/29 07:36:47;;;;;;;12.18;3.50;;;;;;;;;;5045609;28;20445;-78
2022/07/29 07:39:13;;;;;;;8.75;3.20;;;;;;;;;;5033707;28;20025;-77
2022/07/29 07:41:40;;;;;;;10.05;3.38;;;;;;;;;;5034878;28;20032;-76
2022/07/29 07:44:06;;;;;;;14.98;3.47;;;;;;;;;;5034787;28;20025;-77
2022/07/29 07:46:32;;;;;;;12.43;4.10;;;;;;;;;;5034601;28;20022;-77
2022/07/29 07:48:58;;;;;;;8.60;2.85;;;;;;;;;;5034273;28;20065;-76
2022/07/29 07:51:24;;;;;;;10.32;3.30;;;;;;;;;;5034486;28;20017;-77
2022/07/29 07:53:50;;;;;;;8.48;3.13;;;;;;;;;;5034581;28;20514;-77
2022/07/29 07:56:16;;;;;;;14.05;3.30;;;;;;;;;;5034130;28;20487;-76
2022/07/29 07:58:42;;;;;;;11.10;2.85;;;;;;;;;;5032920;28;20367;-76
2022/07/29 08:01:09;;;;;;;10.95;3.03;;;;;;;;;;5034546;28;20044;-76
2022/07/29 08:03:35;;;;;;;7.40;3.60;;;;;;;;;;5035123;28;20303;-78
2022/07/29 08:06:01;;;;;;;8.63;2.90;;;;;;;;;;5034245;28;20033;-76
2022/07/29 08:08:27;;;;;;;10.05;2.83;;;;;;;;;;5036931;28;20085;-76
2022/07/29 08:10:53;;;;;;;6.38;3.05;;;;;;;;;;5034830;28;20053;-78
2022/07/29 08:13:23;;;;;;;9.88;3.00;;;;;;;;;;5035544;28;20029;-78
2022/07/29 08:15:57;;;;;;;11.68;3.10;;;;;;;;;;5032686;28;20017;-76
2022/07/29 08:18:24;;;;;;;12.90;3.22;;;;;;;;;;5034442;28;20029;-76
2022/07/29 08:20:50;;;;;;;8.98;2.95;;;;;;;;;;5035537;28;20025;-78
2022/07/29 08:23:16;;;;;;;15.40;3.35;;;;;;;;;;5034881;28;20033;-78
2022/07/29 08:25:42;;;;;;;10.30;2.95;;;;;;;;;;5035180;28;20083;-77
2022/07/29 08:28:08;;;;;;;8.73;3.22;;;;;;;;;;5034415;28;20029;-78
2022/07/29 08:30:35;;;;;;;12.57;3.40;;;;;;;;;;5035431;28;20032;-77
2022/07/29 08:33:01;;;;;;;9.52;3.63;;;;;;;;;;5034752;28;20487;-77
2022/07/29 08:35:27;;;;;;;9.95;2.92;;;;;;;;;;5035826;28;20553;-76
2022/07/29 08:37:53;;;;;;;7.95;2.92;;;;;;;;;;5041168;28;20079;-77
2022/07/29 08:40:20;;;;;;;8.13;3.17;;;;;;;;;;5040197;28;20067;-77
2022/07/29 08:42:46;;;;;;;9.63;3.20;;;;;;;;;;5037571;28;20058;-78
2022/07/29 08:45:13;;;;;;;10.63;2.85;;;;;;;;;;5037471;28;20360;-78
2022/07/29 08:47:39;;;;;;;11.57;3.97;;;;;;;;;;5037913;28;20029;-79
2022/07/29 08:50:06;;;;;;;24.70;12.18;;;;;;;;;;5044967;28;20085;-79
2022/07/29 08:52:33;;;;;;;8.95;2.92;;;;;;;;;;5040908;28;20022;-77
2022/07/29 08:54:59;;;;;;;9.63;3.30;;;;;;;;;;5037849;28;20037;-78
2022/07/29 08:57:26;;;;;;;13.57;3.72;;;;;;;;;;5032986;28;20047;-78
2022/07/29 08:59:53;;;;;;;13.88;2.78;;;;;;;;;;5035216;28;20481;-77
2022/07/29 09:02:22;;;;;;;16.73;6.03;;;;;;;;;;5037560;28;20033;-77
2022/07/29 09:04:49;;;;;;;9.27;3.53;;;;;;;;;;5037113;28;20037;-76
2022/07/29 09:07:16;;;;;;;12.63;4.90;;;;;;;;;;5037108;28;20029;-78
2022/07/29 09:09:42;;;;;;;11.20;3.25;;;;;;;;;;5037653;28;20045;-76
2022/07/29 09:12:11;;;;;;;8.68;3.08;;;;;;;;;;5037741;28;20096;-77
2022/07/29 09:14:37;;;;;;;11.15;3.00;;;;;;;;;;5037269;28;20409;-76
2022/07/29 09:17:03;;;;;;;9.38;2.80;;;;;;;;;;5037493;28;20037;-76
2022/07/29 09:19:31;;;;;;;12.20;4.60;;;;;;;;;;5037305;28;20033;-76
2022/07/29 09:21:58;;;;;;;16.92;5.43;;;;;;;;;;5037614;28;20029;-78
2022/07/29 09:24:25;;;;;;;9.32;3.17;;;;;;;;;;5040855;28;20029;-77
2022/07/29 09:26:51;;;;;;;17.20;2.67;;;;;;;;;;5054731;28;20021;-79
2022/07/29 09:29:19;;;;;;;10.07;2.22;;;;;;;;;;5051711;28;20492;-78
2022/07/29 09:31:48;;;;;;;10.85;2.55;;;;;;;;;;5043530;28;20021;-78
2022/07/29 09:34:16;;;;;;;7.57;3.50;;;;;;;;;;5043669;28;20045;-79
2022/07/29 09:36:46;;;;;;;23.58;6.93;;;;;;;;;;5039600;28;20017;-76
2022/07/29 09:39:12;;;;;;;13.40;2.42;;;;;;;;;;5048019;28;20026;-77
2022/07/29 09:41:55;;;;;;;6.93;2.20;;;;;;;;;;5050803;28;20017;-77
2022/07/29 09:44:21;;;;;;;18.58;2.30;;;;;;;;;;5047471;28;20025;-78
2022/07/29 09:47:07;;;;;;;5.40;3.15;;;;;;;;;;5053261;28;20041;-78
2022/07/29 09:49:37;;;;;;;10.43;2.97;;;;;;;;;;5054742;28;20029;-77
2022/07/29 09:52:10;;;;;;;14.75;4.53;;;;;;;;;;5044195;28;20017;-78
2022/07/29 09:54:37;;;;;;;9.32;4.35;;;;;;;;;;5041763;28;20032;-78
2022/07/29 09:57:12;;;;;;;7.03;2.58;;;;;;;;;;5038899;28;20043;-78
2022/07/29 09:59:38;;;;;;;7.55;2.50;;;;;;;;;;5037980;28;20067;-78
2022/07/29 10:02:14;;;;;;;13.82;5.10;;;;;;;;;;5037104;28;20025;-79
2022/07/29 10:04:43;;;;;;;13.00;3.10;;;;;;;;;;5034683;28;20048;-77
2022/07/29 10:07:09;;;;;;;6.45;2.08;;;;;;;;;;5035602;28;20025;-76
2022/07/29 10:09:35;;;;;;;7.82;2.00;;;;;;;;;;5035444;28;20030;-77
2022/07/29 10:12:13;;;;;;;8.00;2.30;;;;;;;;;;5035603;28;20463;-78
2022/07/29 10:14:40;;;;;;;7.32;2.03;;;;;;;;;;5035379;28;20029;-77
2022/07/29 10:17:06;;;;;;;6.82;2.05;;;;;;;;;;5035357;28;20057;-77
2022/07/29 10:19:33;;;;;;;5.50;2.63;;;;;;;;;;5035700;28;20104;-77
2022/07/29 10:22:00;;;;;;;11.65;2.00;;;;;;;;;;5038167;28;20026;-78
2022/07/29 10:24:29;;;;;;;7.32;1.95;;;;;;;;;;5036268;28;20036;-77
2022/07/29 10:26:55;;;;;;;7.65;2.03;;;;;;;;;;5035174;28;20033;-77
2022/07/29 10:29:22;;;;;;;8.00;2.10;;;;;;;;;;5036294;28;20085;-77
2022/07/29 10:32:06;;;;;;;11.98;2.40;;;;;;;;;;5035924;28;20391;-78
2022/07/29 10:34:52;;;;;;;5.63;2.20;;;;;;;;;;5035257;28;20034;-77
2022/07/29 10:37:27;;;;;;;8.23;2.40;;;;;;;;;;5034897;28;20053;-78
2022/07/29 10:43:04;;;;;;;12.00;2.13;;;;;;;;;;5036100;28;20517;-77
2022/07/29 10:45:31;;;;;;;9.65;2.45;;;;;;;;;;5035966;28;20071;-77
2022/07/29 10:48:05;;;;;;;10.63;2.50;;;;;;;;;;5036413;28;20410;-77
2022/07/29 10:50:51;;;;;;;9.43;2.20;;;;;;;;;;5041516;28;20084;-77
2022/07/29 10:53:17;;;;;;;8.02;1.88;;;;;;;;;;5038745;28;20021;-77
2022/07/29 10:55:46;;;;;;;10.75;2.33;;;;;;;;;;5038180;28;20088;-78
2022/07/29 10:58:19;;;;;;;14.35;2.47;;;;;;;;;;5036766;28;20431;-78
2022/07/29 11:00:50;;;;;;;13.10;6.22;;;;;;;;;;5035612;28;20451;-77
2022/07/29 11:03:35;;;;;;;5.63;2.88;;;;;;;;;;5035335;28;20065;-77
2022/07/29 11:06:00;;;;;;;;;;;;;;;;;;5036406;28;20148;-79
2022/07/29 11:08:26;;;;;;;10.52;3.00;;;;;;;;;;5036055;28;20027;-77
2022/07/29 11:11:13;;;;;;;16.67;5.65;;;;;;;;;;5033228;28;20368;-78
2022/07/29 11:13:49;;;;;;;6.90;2.50;;;;;;;;;;5016931;28;20825;-78
2022/07/29 11:16:16;;;;;;;9.73;2.17;;;;;;;;;;5034775;28;20071;-77
2022/07/29 11:19:05;;;;;;;10.00;2.00;;;;;;;;;;5035752;28;20025;-78
2022/07/29 11:21:38;;;;;;;7.05;1.95;;;;;;;;;;5024014;28;20042;-79
2022/07/29 11:24:14;;;;;;;10.07;2.83;;;;;;;;;;5032437;28;20029;-76
2022/07/29 11:26:41;;;;;;;8.65;1.77;;;;;;;;;;5035020;28;20109;-77
2022/07/29 11:29:14;;;;;;;11.30;2.80;;;;;;;;;;5033084;28;20465;-77
2022/07/29 11:32:03;;;;;;;7.70;2.10;;;;;;;;;;5034503;28;20039;-77
2022/07/29 11:34:35;;;;;;;5.40;2.00;;;;;;;;;;5036463;28;20129;-75
2022/07/29 11:37:16;;;;;;;10.68;2.13;;;;;;;;;;5026016;28;20048;-76
2022/07/29 11:40:10;;;;;;;7.15;2.30;;;;;;;;;;5044297;28;20041;-76
2022/07/29 11:42:37;;;;;;;10.00;2.78;;;;;;;;;;5043909;28;20502;-76
2022/07/29 11:45:38;;;;;;;11.65;2.40;;;;;;;;;;5086212;27;1456821;-76
2022/07/29 11:48:17;;;;;;;7.75;2.05;;;;;;;;;;5126564;28;20035;-76
2022/07/29 11:50:46;;;;;;;10.48;1.98;;;;;;;;;;5108160;28;20042;-76
2022/07/29 11:53:13;;;;;;;5.90;1.88;;;;;;;;;;5107158;28;20028;-76
2022/07/29 11:55:40;;;;;;;10.93;2.03;;;;;;;;;;5125254;28;20043;-76
2022/07/29 11:58:07;;;;;;;5.38;1.90;;;;;;;;;;5125263;28;20435;-75
2022/07/29 12:00:35;;;;;;;10.38;2.22;;;;;;;;;;5107437;28;20032;-76
2022/07/29 12:03:09;;;;;;;8.18;1.98;;;;;;;;;;5090836;28;20067;-76
2022/07/29 12:05:37;;;;;;;7.75;2.00;;;;;;;;;;5126250;28;20039;-75
2022/07/29 12:08:18;;;;;;;15.75;2.72;;;;;;;;;;5109546;28;20032;-76
2022/07/29 12:10:54;;;;;;;9.13;2.40;;;;;;;;;;5111285;28;20020;-75
2022/07/29 12:13:21;;;;;;;8.43;2.00;;;;;;;;;;5112407;28;20012;-76
2022/07/29 12:15:58;;;;;;;11.07;1.95;;;;;;;;;;5114183;28;20024;-76
2022/07/29 12:18:26;;;;;;;6.70;2.05;;;;;;;;;;5108731;28;20029;-75
2022/07/29 12:20:59;;;;;;;5.88;2.20;;;;;;;;;;5091417;28;20029;-76
2022/07/29 12:23:25;;;;;;;7.85;2.03;;;;;;;;;;5080489;28;20020;-75
2022/07/29 12:25:51;;;;;;;10.48;2.03;;;;;;;;;;5081357;28;20048;-75
2022/07/29 12:28:21;;;;;;;7.68;2.00;;;;;;;;;;5098647;28;20024;-75
2022/07/29 12:30:51;;;;;;;5.68;2.13;;;;;;;;;;5098551;28;20070;-75
2022/07/29 12:33:22;;;;;;;8.48;1.90;;;;;;;;;;5096940;28;20105;-75
2022/07/29 12:35:53;;;;;;;7.45;2.00;;;;;;;;;;5097706;28;20057;-75
2022/07/29 12:38:19;;;;;;;11.27;1.77;;;;;;;;;;5096387;28;20080;-77
2022/07/29 12:40:46;;;;;;;7.75;1.80;;;;;;;;;;5096618;28;20021;-76
2022/07/29 12:43:12;;;;;;;8.45;2.20;;;;;;;;;;5098119;28;20066;-76
2022/07/29 12:45:39;;;;;;;10.27;2.72;;;;;;;;;;5096982;28;20040;-76
2022/07/29 12:48:08;;;;;;;11.20;2.20;;;;;;;;;;5097687;28;20032;-76
2022/07/29 12:50:34;;;;;;;6.82;2.00;;;;;;;;;;5098111;28;20044;-75
2022/07/29 12:53:13;;;;;;;10.45;2.97;;;;;;;;;;5096471;28;20029;-76
2022/07/29 12:55:44;;;;;;;10.40;1.83;;;;;;;;;;5086335;28;20409;-78
2022/07/29 12:58:09;;;;;;;13.18;2.20;;;;;;;;;;5062149;28;20025;-77
2022/07/29 13:00:35;;;;;;;22.02;2.65;;;;;;;;;;5080710;28;20492;-79
2022/07/29 13:03:01;;;;;;;10.25;2.00;;;;;;;;;;5077420;28;20016;-79
2022/07/29 13:05:44;;;;;;;8.88;2.00;;;;;;;;;;5091899;28;20047;-78
2022/07/29 13:08:14;;;;;;;6.93;2.00;;;;;;;;;;5078139;28;20631;-77
2022/07/29 13:10:40;;;;;;;5.85;1.80;;;;;;;;;;5075153;28;20028;-75
2022/07/29 13:13:10;;;;;;;11.13;2.13;;;;;;;;;;5057259;28;20383;-76
2022/07/29 13:15:36;;;;;;;7.00;2.22;;;;;;;;;;5074743;28;20017;-75
2022/07/29 13:18:03;;;;;;;7.95;2.08;;;;;;;;;;5074420;28;20103;-78
2022/07/29 13:20:30;;;;;;;14.45;3.45;;;;;;;;;;5074692;28;20025;-77
2022/07/29 13:22:57;;;;;;;6.65;2.50;;;;;;;;;;5074720;28;20023;-74
2022/07/29 13:25:28;;;;;;;9.82;2.58;;;;;;;;;;5075249;28;20509;-79
2022/07/29 13:27:54;;;;;;;12.48;2.63;;;;;;;;;;5074666;28;20035;-76
2022/07/29 13:30:21;;;;;;;6.72;3.20;;;;;;;;;;5074744;28;20060;-75
2022/07/29 13:32:47;;;;;;;6.80;2.58;;;;;;;;;;5075015;28;20025;-75
2022/07/29 13:35:13;;;;;;;11.00;2.70;;;;;;;;;;5075556;28;20024;-78
2022/07/29 13:37:40;;;;;;;15.10;2.25;;;;;;;;;;5056368;28;20048;-78
2022/07/29 13:40:10;;;;;;;13.43;2.90;;;;;;;;;;5074802;28;20537;-77
2022/07/29 13:42:36;;;;;;;9.80;2.53;;;;;;;;;;5075363;28;20021;-76
2022/07/29 13:45:04;;;;;;;8.50;2.47;;;;;;;;;;5073826;28;20039;-76
2022/07/29 13:47:30;;;;;;;10.75;2.63;;;;;;;;;;5056508;28;20028;-76
2022/07/29 13:49:56;;;;;;;13.02;2.42;;;;;;;;;;5074926;28;20359;-77
2022/07/29 13:52:22;;;;;;;8.95;2.97;;;;;;;;;;5075501;28;20035;-76
2022/07/29 13:54:48;;;;;;;10.07;2.92;;;;;;;;;;5075011;28;20087;-76
2022/07/29 13:57:15;;;;;;;15.57;2.22;;;;;;;;;;5075617;28;20108;-76
2022/07/29 13:59:42;;;;;;;15.48;3.47;;;;;;;;;;5079174;28;20032;-76
2022/07/29 14:02:08;;;;;;;11.75;2.75;;;;;;;;;;5075161;28;20029;-76
2022/07/29 14:04:34;;;;;;;12.82;2.53;;;;;;;;;;5074140;28;20063;-76
2022/07/29 14:07:00;;;;;;;13.48;2.97;;;;;;;;;;5056079;28;20021;-77
2022/07/29 14:09:26;;;;;;;8.63;2.38;;;;;;;;;;5077268;28;20044;-77
2022/07/29 14:11:52;;;;;;;12.95;3.10;;;;;;;;;;5076211;28;20033;-76
2022/07/29 14:14:19;;;;;;;14.95;3.10;;;;;;;;;;5075063;28;20025;-77
2022/07/29 14:16:45;;;;;;;18.23;4.07;;;;;;;;;;5075364;28;20025;-77
2022/07/29 14:19:11;;;;;;;9.20;3.45;;;;;;;;;;5085786;28;20074;-77
2022/07/29 14:21:37;;;;;;;14.43;5.43;;;;;;;;;;5094951;28;20496;-76
2022/07/29 14:24:04;;;;;;;10.90;3.28;;;;;;;;;;5095321;28;20092;-77
2022/07/29 14:26:30;;;;;;;10.73;2.85;;;;;;;;;;5095872;28;20025;-74
2022/07/29 14:28:55;;;;;;;9.07;3.10;;;;;;;;;;5096666;28;20020;-76
2022/07/29 14:31:21;;;;;;;16.65;2.92;;;;;;;;;;5078632;28;20350;-74
2022/07/29 14:33:47;;;;;;;12.93;3.22;;;;;;;;;;5076520;28;20027;-74
2022/07/29 14:36:14;;;;;;;7.95;2.50;;;;;;;;;;5094093;28;20028;-75
2022/07/29 14:38:40;;;;;;;11.75;3.45;;;;;;;;;;5096261;28;20024;-74
2022/07/29 14:41:07;;;;;;;11.75;2.95;;;;;;;;;;5106401;28;20153;-75
2022/07/29 14:43:34;;;;;;;6.78;2.40;;;;;;;;;;5108463;28;20032;-74
2022/07/29 14:46:00;;;;;;;6.35;2.63;;;;;;;;;;5108874;28;20031;-75
2022/07/29 14:48:26;;;;;;;10.77;2.60;;;;;;;;;;5111750;28;20036;-76
2022/07/29 14:50:52;;;;;;;13.30;2.60;;;;;;;;;;5111167;28;20024;-75
2022/07/29 14:53:17;;;;;;;11.95;3.10;;;;;;;;;;5094120;28;20024;-76